createdAt,value
2023-01-10T07:18:06.221Z,1003.52
2023-01-10T07:19:08.253Z,1003.53
2023-01-10T07:20:10.316Z,1003.56
2023-01-10T07:21:12.375Z,1003.55
2023-01-10T07:22:14.377Z,1003.58
2023-01-10T07:23:16.388Z,1003.58
2023-01-10T07:24:18.392Z,1003.59
2023-01-10T07:25:20.444Z,1003.60
2023-01-10T07:26:22.457Z,1003.66
2023-01-10T07:27:24.494Z,1003.68
2023-01-10T07:28:26.517Z,1003.69
2023-01-10T07:29:28.543Z,1003.75
2023-01-10T07:30:30.584Z,1003.77
2023-01-10T07:31:32.662Z,1003.76
2023-01-10T07:32:34.677Z,1003.80
2023-01-10T07:33:36.691Z,1003.86
2023-01-10T07:34:38.732Z,1003.81
2023-01-10T07:35:40.750Z,1003.88
2023-01-10T07:36:42.782Z,1003.89
2023-01-10T07:37:44.786Z,1003.95
2023-01-10T07:38:46.790Z,1003.98
2023-01-10T07:39:48.846Z,1004.00
2023-01-10T07:40:50.876Z,1003.98
2023-01-10T07:41:52.877Z,1004.06
2023-01-10T07:42:54.909Z,1004.01
2023-01-10T07:43:56.918Z,1004.08
2023-01-10T07:44:58.944Z,1004.07
2023-01-10T07:46:01.067Z,1004.09
2023-01-10T07:47:03.101Z,1004.11
2023-01-10T07:48:05.130Z,1004.13
2023-01-10T07:49:07.156Z,1004.15
2023-01-10T07:50:09.209Z,1004.14
2023-01-10T07:51:11.236Z,1004.21
2023-01-10T07:52:13.252Z,1004.22
2023-01-10T07:53:15.233Z,1004.20
2023-01-10T07:54:17.258Z,1004.28
2023-01-10T07:55:19.281Z,1004.32
2023-01-10T07:56:21.300Z,1004.31
2023-01-10T07:57:23.331Z,1004.32
2023-01-10T07:58:25.367Z,1004.27
2023-01-10T07:59:27.396Z,1004.32
2023-01-10T08:00:29.410Z,1004.30
2023-01-10T08:01:31.465Z,1004.37
2023-01-10T08:02:33.576Z,1004.36
2023-01-10T08:03:35.770Z,1004.35
2023-01-10T08:04:36.715Z,1004.33
2023-01-10T08:05:38.726Z,1004.37
2023-01-10T08:06:40.763Z,1004.32
2023-01-10T08:07:42.776Z,1004.32
2023-01-10T08:08:44.805Z,1004.35
2023-01-10T08:09:46.796Z,1004.36
2023-01-10T08:10:48.824Z,1004.41
2023-01-10T08:11:50.894Z,1004.41
2023-01-10T08:12:52.927Z,1004.44
2023-01-10T08:13:54.956Z,1004.45
2023-01-10T08:14:56.954Z,1004.46
2023-01-10T08:15:59.012Z,1004.54
2023-01-10T08:17:01.059Z,1004.52
2023-01-10T08:18:04.910Z,1004.57
2023-01-10T08:19:04.822Z,1004.54
2023-01-10T08:20:06.863Z,1004.57
2023-01-10T08:21:08.873Z,1004.58
2023-01-10T08:22:10.893Z,1004.58
2023-01-10T08:23:12.917Z,1004.60
2023-01-10T08:24:14.964Z,1004.59
2023-01-10T08:25:16.974Z,1004.61
2023-01-10T08:26:19.003Z,1004.61
2023-01-10T08:27:21.073Z,1004.60
2023-01-10T08:28:23.116Z,1004.61
2023-01-10T08:29:25.164Z,1004.66
2023-01-10T08:30:27.179Z,1004.69
2023-01-10T08:31:29.230Z,1004.72
2023-01-10T08:32:31.284Z,1004.77
2023-01-10T08:33:33.304Z,1004.78
2023-01-10T08:34:35.331Z,1004.79
2023-01-10T08:35:37.363Z,1004.79
2023-01-10T08:36:39.415Z,1004.84
2023-01-10T08:37:41.491Z,1004.91
2023-01-10T08:38:43.528Z,1004.94
2023-01-10T08:39:45.538Z,1004.98
2023-01-10T08:40:47.569Z,1005.01
2023-01-10T08:41:49.632Z,1005.09
2023-01-10T08:42:51.612Z,1005.09
2023-01-10T08:43:53.642Z,1005.14
2023-01-10T08:44:55.658Z,1005.12
2023-01-10T08:45:57.688Z,1005.13
2023-01-10T08:46:59.924Z,1005.12
2023-01-10T08:48:01.995Z,1005.09
2023-01-10T08:49:04.011Z,1005.08
2023-01-10T08:50:07.910Z,1005.08
2023-01-10T08:51:07.902Z,1005.09
2023-01-10T08:52:09.936Z,1005.08
2023-01-10T08:53:11.968Z,1005.09
2023-01-10T08:54:13.990Z,1005.12
2023-01-10T08:55:16.028Z,1005.16
2023-01-10T08:56:18.051Z,1005.16
2023-01-10T08:57:20.067Z,1005.20
2023-01-10T08:58:22.116Z,1005.15
2023-01-10T08:59:24.147Z,1005.21
2023-01-10T09:00:26.233Z,1005.25
2023-01-10T09:01:28.360Z,1005.25
2023-01-10T09:02:30.430Z,1005.25
2023-01-10T09:03:32.488Z,1005.25
2023-01-10T09:04:34.520Z,1005.29
2023-01-10T09:05:36.558Z,1005.32
2023-01-10T09:06:38.564Z,1005.30
2023-01-10T09:07:40.568Z,1005.32
2023-01-10T09:08:42.594Z,1005.29
2023-01-10T09:09:44.654Z,1005.31
2023-01-10T09:10:46.693Z,1005.31
2023-01-10T09:11:48.693Z,1005.33
2023-01-10T09:12:50.681Z,1005.31
2023-01-10T09:13:52.751Z,1005.35
2023-01-10T09:14:54.768Z,1005.37
2023-01-10T09:15:56.934Z,1005.36
2023-01-10T09:16:58.941Z,1005.36
2023-01-10T09:18:00.957Z,1005.36
2023-01-10T09:19:02.995Z,1005.38
2023-01-10T09:20:05.018Z,1005.39
2023-01-10T09:21:07.043Z,1005.43
2023-01-10T09:22:09.066Z,1005.43
2023-01-10T09:23:11.100Z,1005.42
2023-01-10T09:24:13.121Z,1005.45
2023-01-10T09:25:15.156Z,1005.46
2023-01-10T09:26:17.187Z,1005.49
2023-01-10T09:27:19.206Z,1005.47
2023-01-10T09:28:21.250Z,1005.45
2023-01-10T09:29:23.307Z,1005.53
2023-01-10T09:30:25.338Z,1005.56
2023-01-10T09:31:27.429Z,1005.58
2023-01-10T09:32:29.487Z,1005.59
2023-01-10T09:33:45.173Z,1005.57
2023-01-10T09:34:32.951Z,1005.61
2023-01-10T09:35:34.975Z,1005.58
2023-01-10T09:36:37.128Z,1005.65
2023-01-10T09:37:39.155Z,1005.64
2023-01-10T09:38:41.169Z,1005.65
2023-01-10T09:39:43.220Z,1005.61
2023-01-10T09:40:45.228Z,1005.61
2023-01-10T09:41:47.238Z,1005.61
2023-01-10T09:42:49.251Z,1005.65
2023-01-10T09:43:51.286Z,1005.59
2023-01-10T09:44:53.380Z,1005.64
2023-01-10T09:45:55.377Z,1005.64
2023-01-10T09:46:57.499Z,1005.68
2023-01-10T09:47:59.499Z,1005.69
2023-01-10T09:49:01.533Z,1005.67
2023-01-10T09:50:03.594Z,1005.70
2023-01-10T09:51:05.630Z,1005.63
2023-01-10T09:52:07.643Z,1005.66
2023-01-10T09:53:09.692Z,1005.66
2023-01-10T09:54:12.705Z,1005.65
2023-01-10T09:55:13.823Z,1005.65
2023-01-10T09:56:15.857Z,1005.69
2023-01-10T09:57:17.880Z,1005.78
2023-01-10T09:58:19.894Z,1005.86
2023-01-10T09:59:21.905Z,1005.84
2023-01-10T10:00:23.995Z,1005.88
2023-01-10T10:01:26.131Z,1005.82
2023-01-10T10:02:28.143Z,1005.89
2023-01-10T10:03:30.192Z,1005.88
2023-01-10T10:04:32.250Z,1005.87
2023-01-10T10:05:34.307Z,1005.90
2023-01-10T10:06:36.339Z,1005.88
2023-01-10T10:07:38.386Z,1005.87
2023-01-10T10:08:40.419Z,1005.86
2023-01-10T10:09:42.439Z,1005.86
2023-01-10T10:10:44.459Z,1005.84
2023-01-10T10:11:47.423Z,1005.85
2023-01-10T10:12:48.364Z,1005.87
2023-01-10T10:13:50.384Z,1005.90
2023-01-10T10:14:52.425Z,1005.91
2023-01-10T10:15:54.482Z,1005.91
2023-01-10T10:16:56.461Z,1005.89
2023-01-10T10:17:58.465Z,1005.92
2023-01-10T10:19:00.487Z,1005.93
2023-01-10T10:20:02.495Z,1005.97
2023-01-10T10:21:04.531Z,1005.98
2023-01-10T10:22:06.516Z,1006.04
2023-01-10T10:23:08.549Z,1006.06
2023-01-10T10:24:10.577Z,1006.06
2023-01-10T10:25:12.632Z,1006.05
2023-01-10T10:26:14.688Z,1006.08
2023-01-10T10:27:16.711Z,1006.07
2023-01-10T10:28:18.691Z,1006.03
2023-01-10T10:29:20.708Z,1006.05
2023-01-10T10:30:22.744Z,1006.06
2023-01-10T10:31:24.868Z,1006.07
2023-01-10T10:32:26.881Z,1006.06
2023-01-10T10:33:28.890Z,1006.05
2023-01-10T10:34:30.910Z,1006.08
2023-01-10T10:35:32.912Z,1006.05
2023-01-10T10:36:35.006Z,1006.05
2023-01-10T10:37:37.040Z,1006.01
2023-01-10T10:38:39.060Z,1005.98
2023-01-10T10:39:41.107Z,1005.98
2023-01-10T10:40:43.170Z,1005.95
2023-01-10T10:41:45.199Z,1005.87
2023-01-10T10:42:47.311Z,1005.82
2023-01-10T10:43:49.312Z,1005.78
2023-01-10T10:44:51.337Z,1005.78
2023-01-10T10:45:53.429Z,1005.72
2023-01-10T10:46:55.452Z,1005.66
2023-01-10T10:47:57.488Z,1005.62
2023-01-10T10:48:59.541Z,1005.62
2023-01-10T10:50:11.967Z,1005.63
2023-01-10T10:51:02.986Z,1005.65
2023-01-10T10:52:05.098Z,1005.70
2023-01-10T10:53:07.113Z,1005.70
2023-01-10T10:54:09.143Z,1005.74
2023-01-10T10:55:11.193Z,1005.77
2023-01-10T10:56:13.214Z,1005.82
2023-01-10T10:57:15.246Z,1005.82
2023-01-10T10:58:17.273Z,1005.84
2023-01-10T10:59:19.321Z,1005.88
2023-01-10T11:00:21.323Z,1005.85
2023-01-10T11:01:25.510Z,1005.78
2023-01-10T11:02:25.245Z,1005.76
2023-01-10T11:03:27.262Z,1005.76
2023-01-10T11:04:29.288Z,1005.80
2023-01-10T11:05:31.290Z,1005.80
2023-01-10T11:06:34.282Z,1005.85
2023-01-10T11:07:35.332Z,1005.93
2023-01-10T11:08:37.323Z,1005.88
2023-01-10T11:09:40.011Z,1005.91
2023-01-10T11:10:40.941Z,1005.92
2023-01-10T11:11:42.977Z,1005.93
2023-01-10T11:12:44.992Z,1005.95
2023-01-10T11:13:47.033Z,1005.92
2023-01-10T11:14:49.054Z,1005.82
2023-01-10T11:15:51.126Z,1005.78
2023-01-10T11:16:53.141Z,1005.79
2023-01-10T11:17:55.172Z,1005.81
2023-01-10T11:18:57.221Z,1005.83
2023-01-10T11:19:59.302Z,1005.80
2023-01-10T11:21:01.388Z,1005.81
2023-01-10T11:22:03.417Z,1005.82
2023-01-10T11:23:05.457Z,1005.89
2023-01-10T11:24:07.494Z,1005.90
2023-01-10T11:25:09.518Z,1005.85
2023-01-10T11:26:11.559Z,1005.87
2023-01-10T11:27:13.584Z,1005.91
2023-01-10T11:28:15.633Z,1005.90
2023-01-10T11:29:17.631Z,1005.87
2023-01-10T11:30:19.669Z,1005.92
2023-01-10T11:31:21.790Z,1005.89
2023-01-10T11:32:23.795Z,1005.92
2023-01-10T11:33:25.869Z,1005.89
2023-01-10T11:34:27.910Z,1005.99
2023-01-10T11:35:29.954Z,1006.00
2023-01-10T11:36:32.013Z,1005.97
2023-01-10T11:37:34.062Z,1005.96
2023-01-10T11:38:36.088Z,1005.98
2023-01-10T11:39:38.147Z,1006.02
2023-01-10T11:40:40.189Z,1006.00
2023-01-10T11:41:42.195Z,1006.00
2023-01-10T11:42:44.232Z,1006.09
2023-01-10T11:43:46.257Z,1006.00
2023-01-10T11:44:48.309Z,1006.01
2023-01-10T11:45:50.351Z,1006.04
2023-01-10T11:46:52.349Z,1006.05
2023-01-10T11:47:54.396Z,1006.02
2023-01-10T11:49:05.482Z,1006.01
2023-01-10T11:49:57.873Z,1006.00
2023-01-10T11:50:59.893Z,1006.02
2023-01-10T11:52:01.928Z,1006.05
2023-01-10T11:53:03.942Z,1006.08
2023-01-10T11:54:05.991Z,1006.04
2023-01-10T11:55:08.000Z,1006.02
2023-01-10T11:56:10.013Z,1006.04
2023-01-10T11:57:12.032Z,1006.04
2023-01-10T11:58:14.071Z,1006.15
2023-01-10T11:59:16.111Z,1006.11
2023-01-10T12:00:18.132Z,1006.17
2023-01-10T12:01:20.193Z,1006.13
2023-01-10T12:02:22.284Z,1006.19
2023-01-10T12:03:24.273Z,1006.21
2023-01-10T12:04:26.357Z,1006.21
2023-01-10T12:05:28.405Z,1006.25
2023-01-10T12:06:30.423Z,1006.27
2023-01-10T12:07:32.454Z,1006.30
2023-01-10T12:08:34.467Z,1006.33
2023-01-10T12:09:36.517Z,1006.35
2023-01-10T12:10:38.537Z,1006.36
2023-01-10T12:11:40.579Z,1006.36
2023-01-10T12:12:42.590Z,1006.42
2023-01-10T12:13:44.622Z,1006.39
2023-01-10T12:14:46.666Z,1006.44
2023-01-10T12:15:48.675Z,1006.46
2023-01-10T12:16:50.746Z,1006.44
2023-01-10T12:17:52.739Z,1006.50
2023-01-10T12:18:54.810Z,1006.49
2023-01-10T12:19:56.836Z,1006.47
2023-01-10T12:20:58.878Z,1006.47
2023-01-10T12:22:00.887Z,1006.49
2023-01-10T12:23:02.956Z,1006.43
2023-01-10T12:24:04.994Z,1006.46
2023-01-10T12:25:07.035Z,1006.45
2023-01-10T12:26:12.276Z,1006.47
2023-01-10T12:27:11.089Z,1006.45
2023-01-10T12:28:13.122Z,1006.45
2023-01-10T12:29:15.168Z,1006.43
2023-01-10T12:30:17.180Z,1006.45
2023-01-10T12:31:19.229Z,1006.44
2023-01-10T12:32:21.263Z,1006.45
2023-01-10T12:33:23.289Z,1006.43
2023-01-10T12:34:25.319Z,1006.48
2023-01-10T12:35:27.368Z,1006.44
2023-01-10T12:36:29.385Z,1006.45
2023-01-10T12:37:31.398Z,1006.49
2023-01-10T12:38:33.432Z,1006.47
2023-01-10T12:39:35.506Z,1006.44
2023-01-10T12:40:37.488Z,1006.46
2023-01-10T12:41:39.545Z,1006.49
2023-01-10T12:42:41.550Z,1006.54
2023-01-10T12:43:43.561Z,1006.56
2023-01-10T12:44:45.610Z,1006.57
2023-01-10T12:45:47.708Z,1006.57
2023-01-10T12:47:05.857Z,1006.55
2023-01-10T12:47:51.149Z,1006.58
2023-01-10T12:48:53.181Z,1006.55
2023-01-10T12:49:55.209Z,1006.54
2023-01-10T12:50:57.280Z,1006.50
2023-01-10T12:51:59.333Z,1006.57
2023-01-10T12:53:01.347Z,1006.55
2023-01-10T12:54:03.390Z,1006.55
2023-01-10T12:55:05.393Z,1006.52
2023-01-10T12:56:07.433Z,1006.59
2023-01-10T12:57:09.461Z,1006.57
2023-01-10T12:58:11.501Z,1006.58
2023-01-10T12:59:13.521Z,1006.54
2023-01-10T13:00:15.541Z,1006.53
2023-01-10T13:01:17.639Z,1006.58
2023-01-10T13:02:19.806Z,1006.62
2023-01-10T13:03:20.779Z,1006.52
2023-01-10T13:04:22.817Z,1006.53
2023-01-10T13:05:24.824Z,1006.55
2023-01-10T13:06:26.880Z,1006.56
2023-01-10T13:07:28.891Z,1006.54
2023-01-10T13:08:30.907Z,1006.54
2023-01-10T13:09:32.973Z,1006.52
2023-01-10T13:10:35.005Z,1006.54
2023-01-10T13:11:37.048Z,1006.52
2023-01-10T13:12:39.073Z,1006.56
2023-01-10T13:13:41.107Z,1006.54
2023-01-10T13:14:43.138Z,1006.59
2023-01-10T13:15:45.252Z,1006.56
2023-01-10T13:16:47.260Z,1006.56
2023-01-10T13:17:49.284Z,1006.51
2023-01-10T13:18:51.309Z,1006.51
2023-01-10T13:19:53.339Z,1006.49
2023-01-10T13:20:55.356Z,1006.53
2023-01-10T13:21:57.372Z,1006.53
2023-01-10T13:22:59.449Z,1006.52
2023-01-10T13:24:01.481Z,1006.53
2023-01-10T13:25:03.509Z,1006.50
2023-01-10T13:26:05.549Z,1006.50
2023-01-10T13:27:07.593Z,1006.50
2023-01-10T13:28:09.613Z,1006.49
2023-01-10T13:29:11.646Z,1006.51
2023-01-10T13:30:13.790Z,1006.54
2023-01-10T13:31:15.818Z,1006.54
2023-01-10T13:32:17.826Z,1006.53
2023-01-10T13:33:19.836Z,1006.56
2023-01-10T13:34:21.847Z,1006.53
2023-01-10T13:35:23.904Z,1006.56
2023-01-10T13:36:25.944Z,1006.50
2023-01-10T13:37:28.013Z,1006.55
2023-01-10T13:38:30.032Z,1006.60
2023-01-10T13:39:32.058Z,1006.64
2023-01-10T13:40:34.094Z,1006.63
2023-01-10T13:41:36.133Z,1006.68
2023-01-10T13:42:38.188Z,1006.71
2023-01-10T13:43:40.217Z,1006.77
2023-01-10T13:44:42.235Z,1006.77
2023-01-10T13:45:44.281Z,1006.76
2023-01-10T13:46:46.338Z,1006.76
2023-01-10T13:47:48.360Z,1006.72
2023-01-10T13:48:50.415Z,1006.76
2023-01-10T13:49:52.439Z,1006.74
2023-01-10T13:50:54.468Z,1006.71
2023-01-10T13:51:56.505Z,1006.73
2023-01-10T13:52:58.701Z,1006.75
2023-01-10T13:53:59.636Z,1006.74
2023-01-10T13:55:01.664Z,1006.73
2023-01-10T13:56:03.674Z,1006.76
2023-01-10T13:57:05.711Z,1006.70
2023-01-10T13:58:07.752Z,1006.69
2023-01-10T13:59:09.790Z,1006.66
2023-01-10T14:00:11.821Z,1006.66
2023-01-10T14:01:14.038Z,1006.69
2023-01-10T14:02:15.043Z,1006.71
2023-01-10T14:03:17.053Z,1006.71
2023-01-10T14:04:19.123Z,1006.73
2023-01-10T14:05:21.144Z,1006.69
2023-01-10T14:06:23.190Z,1006.66
2023-01-10T14:07:25.207Z,1006.73
2023-01-10T14:08:27.252Z,1006.70
2023-01-10T14:09:29.286Z,1006.73
2023-01-10T14:10:31.334Z,1006.75
2023-01-10T14:11:33.391Z,1006.71
2023-01-10T14:12:35.421Z,1006.71
2023-01-10T14:13:37.436Z,1006.68
2023-01-10T14:14:39.502Z,1006.68
2023-01-10T14:15:41.512Z,1006.57
2023-01-10T14:16:45.572Z,1006.64
2023-01-10T14:17:45.387Z,1006.63
2023-01-10T14:18:47.422Z,1006.73
2023-01-10T14:19:49.519Z,1006.68
2023-01-10T14:20:51.543Z,1006.67
2023-01-10T14:21:53.574Z,1006.68
2023-01-10T14:22:55.609Z,1006.68
2023-01-10T14:23:57.620Z,1006.72
2023-01-10T14:24:59.635Z,1006.71
2023-01-10T14:26:01.648Z,1006.70
2023-01-10T14:27:03.656Z,1006.75
2023-01-10T14:28:05.686Z,1006.74
2023-01-10T14:29:07.727Z,1006.77
2023-01-10T14:30:09.783Z,1006.78
2023-01-10T14:31:11.834Z,1006.78
2023-01-10T14:32:13.297Z,1006.77
2023-01-10T14:33:15.310Z,1006.76
2023-01-10T14:34:17.354Z,1006.75
2023-01-10T14:35:19.390Z,1006.73
2023-01-10T14:36:21.407Z,1006.75
2023-01-10T14:37:23.450Z,1006.78
2023-01-10T14:38:25.492Z,1006.78
2023-01-10T14:39:27.582Z,1006.79
2023-01-10T14:40:29.659Z,1006.76
2023-01-10T14:41:31.709Z,1006.73
2023-01-10T14:42:33.782Z,1006.80
2023-01-10T14:43:35.855Z,1006.75
2023-01-10T14:44:37.919Z,1006.72
2023-01-10T14:45:39.975Z,1006.77
2023-01-10T14:46:42.048Z,1006.78
2023-01-10T14:47:44.103Z,1006.78
2023-01-10T14:48:46.142Z,1006.83
2023-01-10T14:49:48.209Z,1006.77
2023-01-10T14:50:50.254Z,1006.79
2023-01-10T14:51:52.290Z,1006.78
2023-01-10T14:52:54.324Z,1006.80
2023-01-10T14:53:56.350Z,1006.82
2023-01-10T14:54:58.418Z,1006.79
2023-01-10T14:56:00.453Z,1006.78
2023-01-10T14:57:02.508Z,1006.73
2023-01-10T14:58:04.525Z,1006.76
2023-01-10T14:59:06.557Z,1006.77
2023-01-10T15:00:08.643Z,1006.78
2023-01-10T15:01:10.734Z,1006.77
2023-01-10T15:02:12.785Z,1006.78
2023-01-10T15:03:14.801Z,1006.81
2023-01-10T15:04:16.904Z,1006.84
2023-01-10T15:05:18.928Z,1006.77
2023-01-10T15:06:20.957Z,1006.78
2023-01-10T15:07:22.998Z,1006.77
2023-01-10T15:08:25.028Z,1006.79
2023-01-10T15:09:27.063Z,1006.77
2023-01-10T15:10:29.158Z,1006.74
2023-01-10T15:11:31.200Z,1006.75
2023-01-10T15:12:33.190Z,1006.70
2023-01-10T15:13:35.246Z,1006.69
2023-01-10T15:14:37.326Z,1006.71
2023-01-10T15:15:39.394Z,1006.73
2023-01-10T15:16:41.446Z,1006.76
2023-01-10T15:17:43.543Z,1006.76
2023-01-10T15:18:45.590Z,1006.72
2023-01-10T15:19:47.603Z,1006.72
2023-01-10T15:20:49.634Z,1006.73
2023-01-10T15:21:51.656Z,1006.70
2023-01-10T15:22:53.688Z,1006.71
2023-01-10T15:23:55.721Z,1006.71
2023-01-10T15:24:57.790Z,1006.72
